Data for 03/25/2005

Time Sea-Level Adjusted Pressure Absolute Pressure Temperature Relative Humidity Dew Point   
(mb) (inHg) (mb) (inHg) (C) (F) (%) (C) (F)
00:05 1017 30.03 846 24.98 -9 15.9 79 -11.9 10.6
00:10 1017 30.03 846 24.98 -9 15.9 80 -11.9 10.6
00:15 1017 30.03 846 24.98 -9 15.7 80 -11.8 10.7
00:20 1017 30.03 846 24.98 -9.1 15.7 80 -11.8 10.7
00:25 1017 30.03 846 24.98 -9.2 15.5 81 -11.9 10.6
00:30 1017 30.03 846 24.98 -9.3 15.4 81 -11.9 10.6
00:35 1017 30.03 846 24.98 -9.3 15.3 81 -11.9 10.5
00:40 1017 30.03 846 24.98 -9.3 15.3 81 -12 10.4
00:45 1017 30.03 846 24.98 -9.3 15.3 81 -12 10.4
00:50 1017 30.03 846 24.98 -9.3 15.3 80 -12.1 10.2
00:55 1017 30.03 846 24.98 -9.3 15.3 80 -12.1 10.2
01:00 1017 30.03 846 24.98 -9.3 15.2 80 -12.2 10
01:05 1017 30.03 846 24.98 -9.4 15.1 80 -12.2 10
01:10 1017 30.03 846 24.98 -9.3 15.2 79 -12.3 9.9
01:15 1017 30.03 846 24.98 -9.5 14.9 80 -12.4 9.7
01:20 1017 30.03 846 24.98 -9.6 14.7 80 -12.5 9.6
01:25 1017 30.03 846 24.98 -9.6 14.7 80 -12.5 9.5
01:30 1017 30.03 846 24.98 -9.7 14.5 80 -12.6 9.4
01:35 1017 30.03 846 24.98 -9.9 14.2 81 -12.5 9.4
01:40 1017 30.03 846 24.98 -10 14.1 83 -12.4 9.7
01:45 1017 30.03 846 24.98 -10 14.1 83 -12.3 9.8
01:50 1017 30.03 846 24.98 -10 14 84 -12.3 9.9
01:55 1017 30.03 846 24.98 -10.1 13.9 84 -12.3 9.9
02:00 1016 30 846 24.98 -10.1 13.8 84 -12.4 9.7
02:05 1016 30 846 24.98 -10.1 13.9 84 -12.3 9.8
02:10 1016 30 846 24.98 -9.9 14.1 83 -12.3 9.9
02:15 1016 30 846 24.98 -9.9 14.3 83 -12.3 9.9
02:20 1016 30 846 24.98 -10 14.1 83 -12.4 9.7
02:25 1016 30 846 24.98 -10.1 13.8 83 -12.5 9.5
02:30 1016 30 846 24.98 -10.2 13.6 84 -12.5 9.6
02:35 1016 30 846 24.98 -10.2 13.6 84 -12.4 9.7
02:40 1016 30 845 24.95 -10.3 13.5 85 -12.4 9.7
02:45 1016 30 846 24.98 -10.2 13.6 84 -12.4 9.6
02:50 1016 30 845 24.95 -10.1 13.7 84 -12.4 9.7
02:55 1016 30 845 24.95 -10.3 13.5 85 -12.4 9.7
03:00 1016 30 845 24.95 -10.3 13.4 84 -12.5 9.4
03:05 1016 30 845 24.95 -10.4 13.4 84 -12.5 9.4
03:10 1016 30 845 24.95 -10.3 13.4 84 -12.6 9.4
03:15 1016 30 845 24.95 -10.3 13.5 84 -12.5 9.5
03:20 1016 30 845 24.95 -10.2 13.7 84 -12.4 9.6
03:25 1016 30 845 24.95 -10.2 13.7 84 -12.4 9.7
03:30 1016 30 845 24.95 -10.1 13.8 84 -12.4 9.7
03:35 1016 30 845 24.95 -10.1 13.8 84 -12.3 9.8
03:40 1016 30 845 24.95 -10.2 13.6 84 -12.4 9.7
03:45 1016 30 845 24.95 -10.2 13.6 84 -12.5 9.5
03:50 1016 30 845 24.95 -10.2 13.6 84 -12.5 9.5
03:55 1016 30 845 24.95 -10.3 13.5 84 -12.5 9.6
04:00 1016 30 845 24.95 -10.3 13.6 84 -12.5 9.6
04:05 1016 30 845 24.95 -10.3 13.5 84 -12.4 9.6
04:10 1016 30 845 24.95 -10.2 13.6 84 -12.4 9.7
04:15 1016 30 845 24.95 -10.2 13.6 84 -12.4 9.7
04:20 1016 30 845 24.95 -10.2 13.7 84 -12.4 9.7
04:25 1016 30 845 24.95 -10.1 13.9 83 -12.3 9.8
04:30 1016 30 846 24.98 -10.1 13.8 84 -12.3 9.9
04:35 1016 30 846 24.98 -10 14 83 -12.3 9.8
04:40 1016 30 846 24.98 -10 14 84 -12.3 9.9
04:45 1016 30 846 24.98 -10 14 83 -12.3 9.8
04:50 1016 30 846 24.98 -10.3 13.4 84 -12.5 9.5
04:55 1016 30 846 24.98 -10.4 13.2 85 -12.4 9.6
05:00 1016 30 846 24.98 -10.6 12.8 86 -12.6 9.3
05:05 1016 30 846 24.98 -10.5 13.1 85 -12.5 9.5
05:10 1016 30 846 24.98 -10.5 13.2 85 -12.5 9.5
05:15 1017 30.03 846 24.98 -10.4 13.3 86 -12.3 9.8
05:20 1016 30 846 24.98 -10.2 13.6 85 -12.2 10
05:25 1016 30 846 24.98 -10.1 13.8 85 -12.2 10.1
05:30 1016 30 846 24.98 -10 13.9 86 -12 10.4
05:35 1016 30 846 24.98 -10 14.1 85 -12 10.3
05:40 1016 30 846 24.98 -10 14 84 -12.2 10.1
05:45 1016 30 846 24.98 -10 14.1 84 -12.2 10.1
05:50 1016 30 846 24.98 -10.1 13.9 85 -12.1 10.2
05:55 1016 30 846 24.98 -10.1 13.8 85 -12.1 10.2
06:00 1016 30 846 24.98 -10.2 13.6 85 -12.3 9.9
06:05 1016 30 846 24.98 -10.3 13.5 86 -12.2 10
06:10 1016 30 846 24.98 -10.2 13.6 85 -12.3 9.8
06:15 1016 30 846 24.98 -10.2 13.6 85 -12.3 9.9
06:20 1017 30.03 846 24.98 -10.2 13.6 85 -12.3 9.9
06:25 1017 30.03 846 24.98 -10.2 13.6 86 -12.2 10.1
06:30 1016 30 846 24.98 -10 13.9 85 -12.1 10.2
06:35 1016 30 846 24.98 -10 14 85 -12 10.4
06:40 1017 30.03 846 24.98 -9.8 14.3 84 -12 10.4
06:45 1017 30.03 846 24.98 -9.7 14.5 84 -11.9 10.7
06:50 1017 30.03 846 24.98 -9.5 14.8 83 -11.9 10.6
06:55 1017 30.03 846 24.98 -9.3 15.2 82 -11.8 10.8
07:00 1017 30.03 846 24.98 -9.1 15.6 82 -11.6 11.1
07:05 1017 30.03 846 24.98 -9 15.8 82 -11.5 11.3
07:10 1017 30.03 846 24.98 -8.9 16 82 -11.4 11.5
07:15 1017 30.03 846 24.98 -8.7 16.3 82 -11.3 11.6
07:20 1017 30.03 846 24.98 -8.7 16.4 81 -11.3 11.6
07:25 1017 30.03 846 24.98 -8.5 16.6 82 -11.1 12
07:30 1017 30.03 846 24.98 -8.4 16.8 81 -11.1 12
07:35 1017 30.03 846 24.98 -8.3 17 81 -11.1 12
07:40 1017 30.03 846 24.98 -8.2 17.2 80 -11 12.2
07:45 1017 30.03 846 24.98 -7.8 18 79 -10.9 12.4
07:50 1017 30.03 846 24.98 -7.7 18.2 80 -10.5 13
07:55 1017 30.03 846 24.98 -7.6 18.3 78 -10.8 12.6
08:00 1017 30.03 846 24.98 -7.3 18.8 77 -10.7 12.7
08:05 1017 30.03 846 24.98 -6.8 19.8 74 -10.7 12.7
08:10 1017 30.03 846 24.98 -6.4 20.4 73 -10.5 13.1
08:15 1017 30.03 846 24.98 -6.2 20.9 73 -10.3 13.4
08:20 1017 30.03 846 24.98 -5.4 22.3 69 -10.3 13.5
08:25 1017 30.03 846 24.98 -5.2 22.6 68 -10.3 13.5
08:30 1017 30.03 846 24.98 -5.4 22.4 68 -10.3 13.4
08:35 1017 30.03 846 24.98 -4.6 23.7 65 -10.3 13.5
08:40 1017 30.03 846 24.98 -3.7 25.3 61 -10.3 13.5
08:45 1017 30.03 846 24.98 -3.7 25.4 62 -9.9 14.2
08:50 1017 30.03 846 24.98 -3.2 26.3 61 -9.6 14.8
08:55 1017 30.03 846 24.98 -2.8 26.9 59 -9.9 14.3
09:00 1017 30.03 846 24.98 -2.8 26.9 59 -9.7 14.6
09:05 1017 30.03 846 24.98 -2.7 27.1 59 -9.6 14.7
09:10 1017 30.03 846 24.98 -2.7 27.1 60 -9.4 15
09:15 1017 30.03 846 24.98 -2.3 27.9 57 -9.7 14.5
09:20 1017 30.03 846 24.98 -1.6 29.1 57 -9.1 15.6
09:25 1017 30.03 846 24.98 -1 30.2 54 -9.3 15.3
09:30 1017 30.03 846 24.98 -0.9 30.4 55 -8.9 16
09:35 1017 30.03 846 24.98 -0.7 30.8 53 -9.1 15.7
09:40 1017 30.03 846 24.98 -0.9 30.4 56 -8.6 16.5
09:45 1017 30.03 846 24.98 -0.5 31 52 -9.2 15.5
09:50 1017 30.03 846 24.98 -0 32 51 -8.9 16
09:55 1017 30.03 846 24.98 -0.2 31.6 53 -8.7 16.3
10:00 1017 30.03 846 24.98 -0.3 31.5 52 -8.9 15.9
10:05 1017 30.03 846 24.98 -0.9 30.4 56 -8.5 16.7
10:10 1017 30.03 846 24.98 -0.8 30.6 56 -8.6 16.5
10:15 1017 30.03 846 24.98 -0.3 31.5 54 -8.6 16.5
10:20 1017 30.03 846 24.98 -0 32 52 -8.8 16.2
10:25 1017 30.03 846 24.98 0.5 32.9 51 -8.5 16.7
10:30 1017 30.03 846 24.98 0.5 32.9 52 -8.2 17.2
10:35 1017 30.03 846 24.98 0.2 32.4 52 -8.4 16.9
10:40 1017 30.03 846 24.98 0.3 32.5 53 -8.2 17.2
10:45 1017 30.03 846 24.98 0.5 33 52 -8.2 17.2
10:50 1017 30.03 846 24.98 0.8 33.4 52 -7.9 17.7
10:55 1017 30.03 846 24.98 1.1 34 50 -8.2 17.3
11:00 1017 30.03 846 24.98 1.5 34.8 49 -8.1 17.4
11:05 1017 30.03 846 24.98 1.6 34.9 50 -7.7 18.2
11:10 1017 30.03 846 24.98 1.3 34.4 50 -7.9 17.7
11:15 1017 30.03 846 24.98 1 33.8 53 -7.6 18.3
11:20 1017 30.03 846 24.98 1.1 34 52 -7.6 18.4
11:25 1017 30.03 846 24.98 1.2 34.1 55 -6.9 19.6
11:30 1017 30.03 846 24.98 1.2 34.2 51 -7.9 17.8
11:35 1017 30.03 846 24.98 1.5 34.7 49 -8.1 17.3
11:40 1017 30.03 846 24.98 1.6 34.9 51 -7.4 18.8
11:45 1017 30.03 846 24.98 1.7 35 52 -7.2 19
11:50 1017 30.03 846 24.98 2 35.6 50 -7.2 19
11:55 1017 30.03 846 24.98 1.7 35 50 -7.6 18.3
12:00 1017 30.03 846 24.98 1.9 35.5 50 -7.5 18.5
12:05 1017 30.03 846 24.98 2 35.5 50 -7.4 18.7
12:10 1017 30.03 846 24.98 1.7 35.1 54 -6.6 20.1
12:15 1017 30.03 846 24.98 1.8 35.2 53 -6.8 19.7
12:20 1017 30.03 846 24.98 2.1 35.8 49 -7.5 18.6
12:25 1017 30.03 846 24.98 1.7 35 53 -7 19.4
12:30 1017 30.03 846 24.98 1.9 35.4 52 -7 19.4
12:35 1017 30.03 846 24.98 2.3 36.1 49 -7.4 18.6
12:40 1017 30.03 846 24.98 2.2 36 52 -6.6 20.2
12:45 1017 30.03 846 24.98 1.7 35 53 -6.9 19.6
12:50 1017 30.03 846 24.98 2.1 35.7 53 -6.6 20.2
12:55 1017 30.03 846 24.98 2.7 36.9 49 -6.9 19.6
13:00 1017 30.03 846 24.98 2.9 37.2 47 -7.4 18.7
13:05 1017 30.03 846 24.98 2.4 36.3 49 -7.2 19.1
13:10 1017 30.03 846 24.98 2.6 36.7 48 -7.2 19
13:15 1017 30.03 846 24.98 2.3 36.1 50 -7.2 19.1
13:20 1017 30.03 846 24.98 2 35.7 47 -8.1 17.5
13:25 1017 30.03 846 24.98 2.7 36.8 46 -8 17.7
13:30 1017 30.03 846 24.98 2.9 37.3 47 -7.2 19
13:35 1016 30 846 24.98 2.9 37.2 47 -7.4 18.6
13:40 1016 30 846 24.98 3 37.5 45 -7.6 18.2
13:45 1016 30 846 24.98 2.9 37.3 48 -7 19.5
13:50 1016 30 846 24.98 2.6 36.7 50 -6.8 19.8
13:55 1016 30 846 24.98 3 37.3 50 -6.4 20.4
14:00 1016 30 846 24.98 3.3 38 50 -6 21.1
14:05 1016 30 846 24.98 3.7 38.6 51 -5.6 21.8
14:10 1016 30 845 24.95 2.9 37.2 54 -5.4 22.2
14:15 1016 30 845 24.95 2.2 36 54 -6.2 20.9
14:20 1016 30 845 24.95 2.6 36.6 55 -5.6 21.9
14:25 1016 30 845 24.95 3.2 37.7 52 -5.8 21.6
14:30 1016 30 845 24.95 2.7 36.9 53 -5.9 21.4
14:35 1016 30 845 24.95 3.4 38 51 -5.8 21.5
14:40 1016 30 845 24.95 3.3 37.9 52 -5.6 21.9
14:45 1016 30 845 24.95 2.8 37.1 52 -6 21.3
14:50 1016 30 845 24.95 2.6 36.7 55 -5.5 22.1
14:55 1016 30 845 24.95 2.4 36.3 53 -6.3 20.6
15:00 1016 30 845 24.95 3.2 37.7 49 -6.5 20.3
15:05 1016 30 845 24.95 3.3 37.9 49 -6.4 20.5
15:10 1016 30 845 24.95 3.2 37.8 47 -7.1 19.2
15:15 1016 30 845 24.95 3.3 37.9 46 -7.3 18.8
15:20 1016 30 845 24.95 3.1 37.5 46 -7.4 18.8
15:25 1016 30 845 24.95 3.4 38.1 44 -7.7 18.1
15:30 1016 30 845 24.95 3.5 38.3 42 -8.2 17.3
15:35 1016 30 845 24.95 3.1 37.6 47 -7 19.3
15:40 1016 30 845 24.95 3.1 37.6 44 -8 17.6
15:45 1016 30 845 24.95 3.4 38.2 43 -7.9 17.7
15:50 1016 30 845 24.95 3.5 38.4 45 -7.4 18.6
15:55 1016 30 845 24.95 3.8 38.9 43 -7.7 18.1
16:00 1016 30 845 24.95 3.9 39 46 -6.7 20
16:05 1016 30 845 24.95 3.8 38.9 45 -7.2 19.1
16:10 1016 30 845 24.95 3.8 38.9 44 -7.4 18.6
16:15 1016 30 845 24.95 3.9 39 44 -7.1 19.2
16:20 1016 30 845 24.95 4 39.2 44 -7.1 19.3
16:25 1016 30 845 24.95 3.6 38.5 45 -7.2 19
16:30 1016 30 845 24.95 3.2 37.8 46 -7.2 19
16:35 1016 30 845 24.95 3.4 38 46 -7.1 19.2
16:40 1016 30 845 24.95 3.4 38.1 46 -7.1 19.3
16:45 1016 30 845 24.95 3.2 37.7 48 -6.9 19.6
16:50 1016 30 845 24.95 3.2 37.7 49 -6.7 20
16:55 1016 30 845 24.95 2.8 37 49 -6.9 19.6
17:00 1016 30 845 24.95 1.8 35.3 54 -6.6 20.1
17:05 1016 30 845 24.95 1.7 35 53 -7 19.4
17:10 1016 30 845 24.95 2.1 35.7 51 -7 19.4
17:15 1016 30 845 24.95 1.4 34.6 52 -7.3 18.8
17:20 1016 30 846 24.98 1.3 34.3 52 -7.6 18.4
17:25 1016 30 846 24.98 1.2 34.2 51 -7.8 18
17:30 1016 30 846 24.98 1.4 34.6 52 -7.5 18.6
17:35 1016 30 846 24.98 1.6 35 51 -7.5 18.5
17:40 1016 30 845 24.95 1.5 34.7 51 -7.7 18.1
17:45 1016 30 846 24.98 1.3 34.4 51 -7.6 18.2
17:50 1016 30 846 24.98 1.4 34.4 50 -7.9 17.8
17:55 1016 30 846 24.98 1.2 34.1 53 -7.4 18.7
18:00 1017 30.03 846 24.98 1.2 34.2 53 -7.4 18.6
18:05 1017 30.03 846 24.98 1.5 34.6 51 -7.6 18.3
18:10 1017 30.03 846 24.98 1.4 34.5 52 -7.4 18.7
18:15 1017 30.03 846 24.98 1.3 34.3 54 -7.1 19.3
18:20 1017 30.03 846 24.98 1.2 34.2 54 -7.1 19.2
18:25 1017 30.03 846 24.98 1.3 34.3 55 -6.9 19.6
18:30 1017 30.03 846 24.98 1.1 34 55 -6.8 19.7
18:35 1017 30.03 846 24.98 1 33.8 55 -7 19.3
18:40 1017 30.03 846 24.98 0.9 33.5 55 -7.2 19.1
18:45 1017 30.03 846 24.98 0.8 33.4 55 -7.2 19
18:50 1017 30.03 846 24.98 0.8 33.5 54 -7.4 18.6
18:55 1017 30.03 846 24.98 0.9 33.6 55 -7.2 19
19:00 1017 30.03 846 24.98 0.9 33.7 55 -7.2 19
19:05 1017 30.03 846 24.98 1 33.8 53 -7.5 18.6
19:10 1017 30.03 846 24.98 0.9 33.7 53 -7.5 18.5
19:15 1017 30.03 846 24.98 0.9 33.6 54 -7.5 18.5
19:20 1017 30.03 846 24.98 0.8 33.5 57 -6.8 19.7
19:25 1017 30.03 846 24.98 0.4 32.7 58 -7 19.5
19:30 1017 30.03 846 24.98 -0.1 31.9 62 -6.6 20.1
19:35 1017 30.03 847 25.01 -0.1 31.8 63 -6.2 20.8
19:40 1017 30.03 847 25.01 -0.1 31.8 64 -6.2 20.9
19:45 1018 30.06 847 25.01 -0.1 31.9 64 -6.1 21.1
19:50 1018 30.06 847 25.01 -0.2 31.7 64 -6.2 20.8
19:55 1018 30.06 847 25.01 -0.1 31.9 63 -6.2 20.9
20:00 1018 30.06 847 25.01 -0.1 31.8 63 -6.3 20.6
20:05 1018 30.06 847 25.01 -0.1 31.8 62 -6.6 20.1
20:10 1018 30.06 847 25.01 -0 31.9 62 -6.5 20.4
20:15 1018 30.06 847 25.01 -0 32 61 -6.6 20.2
20:20 1018 30.06 847 25.01 -0.1 31.8 62 -6.5 20.3
20:25 1018 30.06 847 25.01 -0.2 31.7 63 -6.4 20.5
20:30 1018 30.06 847 25.01 -0.3 31.4 66 -5.9 21.4
20:35 1018 30.06 847 25.01 -0.6 31 68 -5.8 21.5
20:40 1018 30.06 847 25.01 -0.8 30.6 68 -6 21.2
20:45 1018 30.06 847 25.01 -0.9 30.4 68 -6.2 20.9
20:50 1018 30.06 847 25.01 -0.8 30.5 68 -6 21.2
20:55 1018 30.06 847 25.01 -0.7 30.7 67 -6 21.1
21:00 1018 30.06 847 25.01 -0.9 30.3 70 -5.7 21.7
21:05 1018 30.06 847 25.01 -1.5 29.3 72 -5.9 21.3
21:10 1018 30.06 847 25.01 -1.7 28.9 73 -5.9 21.3
21:15 1018 30.06 847 25.01 -1.6 29.1 70 -6.4 20.4
21:20 1018 30.06 847 25.01 -1.6 29.1 72 -6 21.1
21:25 1018 30.06 847 25.01 -2 28.4 73 -6.1 21
21:30 1018 30.06 847 25.01 -2.2 28.1 74 -6.2 20.8
21:35 1018 30.06 847 25.01 -2.4 27.6 75 -6.2 20.8
21:40 1018 30.06 847 25.01 -2.6 27.3 76 -6.3 20.6
21:45 1018 30.06 847 25.01 -2.6 27.3 74 -6.7 19.9
21:50 1018 30.06 847 25.01 -2.5 27.5 73 -6.7 20
21:55 1018 30.06 847 25.01 -2.5 27.5 72 -6.8 19.8
22:00 1018 30.06 847 25.01 -2.4 27.6 71 -6.9 19.5
22:05 1018 30.06 847 25.01 -2.2 28.1 70 -6.9 19.5
22:10 1018 30.06 848 25.04 -2.1 28.2 70 -6.8 19.8
22:15 1018 30.06 848 25.04 -2.2 28 71 -6.8 19.7
22:20 1018 30.06 848 25.04 -2.4 27.6 72 -6.8 19.8
22:25 1018 30.06 848 25.04 -2.5 27.4 72 -7 19.4
22:30 1018 30.06 848 25.04 -2.5 27.6 71 -6.9 19.5
22:35 1019 30.09 848 25.04 -2.9 26.8 73 -7.1 19.3
22:40 1019 30.09 848 25.04 -3.1 26.4 74 -7.2 19.1
22:45 1019 30.09 848 25.04 -3.2 26.3 74 -7.1 19.2
22:50 1019 30.09 848 25.04 -3.1 26.4 74 -7.2 19.1
22:55 1019 30.09 848 25.04 -2.8 26.9 72 -7.1 19.1
23:00 1019 30.09 848 25.04 -2.9 26.7 73 -7.2 19.1
23:05 1019 30.09 848 25.04 -3.2 26.3 74 -7.2 19
23:10 1019 30.09 848 25.04 -3.3 26.1 75 -7.1 19.2
23:15 1019 30.09 848 25.04 -3.3 26 75 -7.2 19
23:20 1019 30.09 848 25.04 -3.4 25.8 75 -7.2 19.1
23:25 1019 30.09 849 25.07 -3.2 26.3 74 -7.1 19.2
23:30 1019 30.09 849 25.07 -3.1 26.5 74 -7.1 19.2
23:35 1019 30.09 849 25.07 -2.7 27.1 73 -6.9 19.6
23:40 1019 30.09 849 25.07 -2.7 27.1 74 -6.7 20
23:45 1020 30.12 849 25.07 -2.8 27 75 -6.6 20.1
23:50 1020 30.12 849 25.07 -2.6 27.4 75 -6.5 20.4
23:55 1020 30.12 849 25.07 -2.4 27.6 75 -6.3 20.6
24:00 1020 30.12 849 25.07 -2.4 27.8 74 -6.3 20.6